sensor_id;sensor_type;location;lat;lon;timestamp;P1;durP1;ratioP1;P2;durP2;ratioP2
75441;SDS011;64019;48.312;14.226;2023-06-22T00:01:58;5.60;;;2.10;;
75441;SDS011;64019;48.312;14.226;2023-06-22T00:04:24;9.43;;;2.70;;
75441;SDS011;64019;48.312;14.226;2023-06-22T00:06:50;4.53;;;2.47;;
75441;SDS011;64019;48.312;14.226;2023-06-22T00:09:16;5.57;;;2.43;;
75441;SDS011;64019;48.312;14.226;2023-06-22T00:11:42;8.97;;;2.87;;
75441;SDS011;64019;48.312;14.226;2023-06-22T00:14:08;7.03;;;2.47;;
75441;SDS011;64019;48.312;14.226;2023-06-22T00:16:33;12.00;;;2.97;;
75441;SDS011;64019;48.312;14.226;2023-06-22T00:18:59;10.77;;;2.53;;
75441;SDS011;64019;48.312;14.226;2023-06-22T00:21:27;9.50;;;3.07;;
75441;SDS011;64019;48.312;14.226;2023-06-22T00:23:53;5.83;;;2.63;;
75441;SDS011;64019;48.312;14.226;2023-06-22T00:26:19;8.97;;;2.73;;
75441;SDS011;64019;48.312;14.226;2023-06-22T00:28:45;7.80;;;2.93;;
75441;SDS011;64019;48.312;14.226;2023-06-22T00:31:11;7.43;;;2.60;;
75441;SDS011;64019;48.312;14.226;2023-06-22T00:33:38;8.90;;;2.33;;
75441;SDS011;64019;48.312;14.226;2023-06-22T00:36:04;9.37;;;2.77;;
75441;SDS011;64019;48.312;14.226;2023-06-22T00:38:31;7.80;;;2.83;;
75441;SDS011;64019;48.312;14.226;2023-06-22T00:40:57;6.27;;;2.93;;
75441;SDS011;64019;48.312;14.226;2023-06-22T00:43:23;7.10;;;3.47;;
75441;SDS011;64019;48.312;14.226;2023-06-22T00:45:48;8.37;;;2.80;;
75441;SDS011;64019;48.312;14.226;2023-06-22T00:48:14;9.70;;;2.43;;
75441;SDS011;64019;48.312;14.226;2023-06-22T00:50:40;9.53;;;3.17;;
75441;SDS011;64019;48.312;14.226;2023-06-22T00:53:07;9.60;;;2.83;;
75441;SDS011;64019;48.312;14.226;2023-06-22T00:55:35;8.47;;;3.20;;
75441;SDS011;64019;48.312;14.226;2023-06-22T00:58:05;7.77;;;2.53;;
75441;SDS011;64019;48.312;14.226;2023-06-22T01:00:35;6.63;;;2.40;;
75441;SDS011;64019;48.312;14.226;2023-06-22T01:03:01;9.83;;;2.70;;
75441;SDS011;64019;48.312;14.226;2023-06-22T01:05:28;5.83;;;2.80;;
75441;SDS011;64019;48.312;14.226;2023-06-22T01:10:48;7.90;;;2.63;;
75441;SDS011;64019;48.312;14.226;2023-06-22T01:15:53;7.87;;;3.93;;
75441;SDS011;64019;48.312;14.226;2023-06-22T01:18:23;12.07;;;2.73;;
75441;SDS011;64019;48.312;14.226;2023-06-22T01:20:53;6.13;;;3.77;;
75441;SDS011;64019;48.312;14.226;2023-06-22T01:28:55;7.13;;;2.50;;
75441;SDS011;64019;48.312;14.226;2023-06-22T01:31:25;9.83;;;3.20;;
75441;SDS011;64019;48.312;14.226;2023-06-22T01:34:04;10.40;;;2.77;;
75441;SDS011;64019;48.312;14.226;2023-06-22T01:36:33;6.63;;;2.53;;
75441;SDS011;64019;48.312;14.226;2023-06-22T01:38:59;8.10;;;2.97;;
75441;SDS011;64019;48.312;14.226;2023-06-22T01:41:27;9.40;;;2.40;;
75441;SDS011;64019;48.312;14.226;2023-06-22T01:43:55;6.93;;;2.43;;
75441;SDS011;64019;48.312;14.226;2023-06-22T01:46:21;8.03;;;2.17;;
75441;SDS011;64019;48.312;14.226;2023-06-22T01:48:48;13.87;;;2.80;;
75441;SDS011;64019;48.312;14.226;2023-06-22T01:51:14;6.93;;;2.40;;
75441;SDS011;64019;48.312;14.226;2023-06-22T01:53:41;8.13;;;2.70;;
75441;SDS011;64019;48.312;14.226;2023-06-22T01:56:07;8.67;;;2.90;;
75441;SDS011;64019;48.312;14.226;2023-06-22T01:58:33;9.60;;;2.90;;
75441;SDS011;64019;48.312;14.226;2023-06-22T02:03:35;8.57;;;2.60;;
75441;SDS011;64019;48.312;14.226;2023-06-22T02:06:11;8.13;;;3.10;;
75441;SDS011;64019;48.312;14.226;2023-06-22T02:08:49;8.87;;;2.70;;
75441;SDS011;64019;48.312;14.226;2023-06-22T02:11:20;6.33;;;2.67;;
75441;SDS011;64019;48.312;14.226;2023-06-22T02:13:47;9.83;;;3.20;;
75441;SDS011;64019;48.312;14.226;2023-06-22T02:16:14;5.30;;;2.70;;
75441;SDS011;64019;48.312;14.226;2023-06-22T02:18:48;7.13;;;2.63;;
75441;SDS011;64019;48.312;14.226;2023-06-22T02:21:18;7.37;;;2.70;;
75441;SDS011;64019;48.312;14.226;2023-06-22T02:23:44;9.27;;;3.27;;
75441;SDS011;64019;48.312;14.226;2023-06-22T02:26:11;10.80;;;2.83;;
75441;SDS011;64019;48.312;14.226;2023-06-22T02:28:37;10.30;;;3.00;;
75441;SDS011;64019;48.312;14.226;2023-06-22T02:31:03;9.00;;;2.83;;
75441;SDS011;64019;48.312;14.226;2023-06-22T02:33:28;6.43;;;2.90;;
75441;SDS011;64019;48.312;14.226;2023-06-22T02:35:54;11.07;;;3.10;;
75441;SDS011;64019;48.312;14.226;2023-06-22T02:38:20;9.27;;;3.13;;
75441;SDS011;64019;48.312;14.226;2023-06-22T02:40:46;13.77;;;3.47;;
75441;SDS011;64019;48.312;14.226;2023-06-22T02:43:12;7.43;;;3.10;;
75441;SDS011;64019;48.312;14.226;2023-06-22T02:45:38;9.93;;;3.00;;
75441;SDS011;64019;48.312;14.226;2023-06-22T02:48:04;11.97;;;3.10;;
75441;SDS011;64019;48.312;14.226;2023-06-22T02:50:30;11.67;;;3.60;;
75441;SDS011;64019;48.312;14.226;2023-06-22T02:52:55;8.20;;;2.97;;
75441;SDS011;64019;48.312;14.226;2023-06-22T02:55:21;9.67;;;2.70;;
75441;SDS011;64019;48.312;14.226;2023-06-22T02:57:48;9.47;;;3.53;;
75441;SDS011;64019;48.312;14.226;2023-06-22T03:00:17;5.73;;;2.30;;
75441;SDS011;64019;48.312;14.226;2023-06-22T03:02:44;7.40;;;2.83;;
75441;SDS011;64019;48.312;14.226;2023-06-22T03:05:11;10.17;;;3.00;;
75441;SDS011;64019;48.312;14.226;2023-06-22T03:07:41;9.63;;;3.20;;
75441;SDS011;64019;48.312;14.226;2023-06-22T03:10:11;10.07;;;3.33;;
75441;SDS011;64019;48.312;14.226;2023-06-22T03:12:38;9.33;;;3.17;;
75441;SDS011;64019;48.312;14.226;2023-06-22T03:15:05;7.80;;;3.17;;
75441;SDS011;64019;48.312;14.226;2023-06-22T03:17:33;4.67;;;2.93;;
75441;SDS011;64019;48.312;14.226;2023-06-22T03:19:59;6.53;;;2.80;;
75441;SDS011;64019;48.312;14.226;2023-06-22T03:22:25;7.03;;;3.27;;
75441;SDS011;64019;48.312;14.226;2023-06-22T03:24:51;8.43;;;3.23;;
75441;SDS011;64019;48.312;14.226;2023-06-22T03:27:16;10.37;;;3.03;;
75441;SDS011;64019;48.312;14.226;2023-06-22T03:29:43;17.87;;;3.37;;
75441;SDS011;64019;48.312;14.226;2023-06-22T03:32:09;8.03;;;3.53;;
75441;SDS011;64019;48.312;14.226;2023-06-22T03:34:35;8.20;;;2.77;;
75441;SDS011;64019;48.312;14.226;2023-06-22T03:37:01;7.07;;;3.17;;
75441;SDS011;64019;48.312;14.226;2023-06-22T03:39:28;11.23;;;3.13;;
75441;SDS011;64019;48.312;14.226;2023-06-22T03:41:55;12.30;;;3.63;;
75441;SDS011;64019;48.312;14.226;2023-06-22T03:44:21;7.50;;;3.30;;
75441;SDS011;64019;48.312;14.226;2023-06-22T03:46:46;8.27;;;3.00;;
75441;SDS011;64019;48.312;14.226;2023-06-22T03:49:12;10.03;;;3.00;;
75441;SDS011;64019;48.312;14.226;2023-06-22T03:51:38;8.67;;;2.97;;
75441;SDS011;64019;48.312;14.226;2023-06-22T03:54:04;6.67;;;2.80;;
75441;SDS011;64019;48.312;14.226;2023-06-22T03:56:29;8.00;;;2.93;;
75441;SDS011;64019;48.312;14.226;2023-06-22T03:58:56;11.63;;;3.53;;
75441;SDS011;64019;48.312;14.226;2023-06-22T04:01:22;5.23;;;2.83;;
75441;SDS011;64019;48.312;14.226;2023-06-22T04:03:47;8.47;;;3.33;;
75441;SDS011;64019;48.312;14.226;2023-06-22T04:06:14;9.90;;;3.20;;
75441;SDS011;64019;48.312;14.226;2023-06-22T04:08:40;7.87;;;3.10;;
75441;SDS011;64019;48.312;14.226;2023-06-22T04:11:06;6.13;;;2.73;;
75441;SDS011;64019;48.312;14.226;2023-06-22T04:13:32;6.27;;;2.67;;
75441;SDS011;64019;48.312;14.226;2023-06-22T04:15:57;10.23;;;3.33;;
75441;SDS011;64019;48.312;14.226;2023-06-22T04:18:23;8.67;;;2.83;;
75441;SDS011;64019;48.312;14.226;2023-06-22T04:20:49;9.60;;;3.23;;
75441;SDS011;64019;48.312;14.226;2023-06-22T04:23:14;9.43;;;3.30;;
75441;SDS011;64019;48.312;14.226;2023-06-22T04:25:40;6.63;;;2.90;;
75441;SDS011;64019;48.312;14.226;2023-06-22T04:28:06;11.07;;;3.03;;
75441;SDS011;64019;48.312;14.226;2023-06-22T04:30:37;6.03;;;3.47;;
75441;SDS011;64019;48.312;14.226;2023-06-22T04:33:14;9.33;;;2.87;;
75441;SDS011;64019;48.312;14.226;2023-06-22T04:35:40;5.73;;;3.10;;
75441;SDS011;64019;48.312;14.226;2023-06-22T04:38:06;7.17;;;2.67;;
75441;SDS011;64019;48.312;14.226;2023-06-22T04:40:33;14.30;;;3.17;;
75441;SDS011;64019;48.312;14.226;2023-06-22T04:42:59;8.53;;;3.20;;
75441;SDS011;64019;48.312;14.226;2023-06-22T04:45:27;10.00;;;2.83;;
75441;SDS011;64019;48.312;14.226;2023-06-22T04:47:54;7.70;;;3.30;;
75441;SDS011;64019;48.312;14.226;2023-06-22T04:50:20;4.70;;;2.87;;
75441;SDS011;64019;48.312;14.226;2023-06-22T04:52:49;8.03;;;3.13;;
75441;SDS011;64019;48.312;14.226;2023-06-22T04:55:15;8.27;;;3.03;;
75441;SDS011;64019;48.312;14.226;2023-06-22T04:57:45;6.87;;;3.50;;
75441;SDS011;64019;48.312;14.226;2023-06-22T05:00:17;9.33;;;3.70;;
75441;SDS011;64019;48.312;14.226;2023-06-22T05:02:45;6.00;;;3.10;;
75441;SDS011;64019;48.312;14.226;2023-06-22T05:05:11;4.50;;;2.73;;
75441;SDS011;64019;48.312;14.226;2023-06-22T05:07:45;6.53;;;3.20;;
75441;SDS011;64019;48.312;14.226;2023-06-22T05:10:13;7.50;;;2.87;;
75441;SDS011;64019;48.312;14.226;2023-06-22T05:12:40;9.50;;;2.90;;
75441;SDS011;64019;48.312;14.226;2023-06-22T05:15:06;10.67;;;3.70;;
75441;SDS011;64019;48.312;14.226;2023-06-22T05:17:33;7.40;;;2.50;;
75441;SDS011;64019;48.312;14.226;2023-06-22T05:19:59;7.13;;;3.80;;
75441;SDS011;64019;48.312;14.226;2023-06-22T05:22:24;6.57;;;2.87;;
75441;SDS011;64019;48.312;14.226;2023-06-22T05:24:50;4.47;;;2.70;;
75441;SDS011;64019;48.312;14.226;2023-06-22T05:27:16;7.97;;;3.20;;
75441;SDS011;64019;48.312;14.226;2023-06-22T05:29:41;7.87;;;2.93;;
75441;SDS011;64019;48.312;14.226;2023-06-22T05:32:07;8.30;;;2.93;;
75441;SDS011;64019;48.312;14.226;2023-06-22T05:34:33;9.30;;;3.40;;
75441;SDS011;64019;48.312;14.226;2023-06-22T05:36:59;6.07;;;3.13;;
75441;SDS011;64019;48.312;14.226;2023-06-22T05:39:25;9.10;;;3.30;;
75441;SDS011;64019;48.312;14.226;2023-06-22T05:41:51;5.97;;;3.53;;
75441;SDS011;64019;48.312;14.226;2023-06-22T05:44:17;10.03;;;3.10;;
75441;SDS011;64019;48.312;14.226;2023-06-22T05:46:43;9.43;;;3.17;;
75441;SDS011;64019;48.312;14.226;2023-06-22T05:49:14;11.30;;;4.20;;
75441;SDS011;64019;48.312;14.226;2023-06-22T05:51:40;8.97;;;3.33;;
75441;SDS011;64019;48.312;14.226;2023-06-22T05:54:07;5.67;;;3.33;;
75441;SDS011;64019;48.312;14.226;2023-06-22T05:56:33;11.30;;;3.40;;
75441;SDS011;64019;48.312;14.226;2023-06-22T05:58:59;8.33;;;3.63;;
75441;SDS011;64019;48.312;14.226;2023-06-22T06:01:25;7.50;;;2.97;;
75441;SDS011;64019;48.312;14.226;2023-06-22T06:03:51;4.87;;;3.07;;
75441;SDS011;64019;48.312;14.226;2023-06-22T06:06:18;8.10;;;3.73;;
75441;SDS011;64019;48.312;14.226;2023-06-22T06:08:53;10.97;;;3.23;;
75441;SDS011;64019;48.312;14.226;2023-06-22T06:11:20;18.40;;;4.17;;
75441;SDS011;64019;48.312;14.226;2023-06-22T06:13:46;5.37;;;3.20;;
75441;SDS011;64019;48.312;14.226;2023-06-22T06:16:13;9.50;;;3.50;;
75441;SDS011;64019;48.312;14.226;2023-06-22T06:18:38;13.60;;;3.47;;
75441;SDS011;64019;48.312;14.226;2023-06-22T06:21:04;6.77;;;3.13;;
75441;SDS011;64019;48.312;14.226;2023-06-22T06:23:30;8.07;;;3.30;;
75441;SDS011;64019;48.312;14.226;2023-06-22T06:25:56;12.20;;;3.40;;
75441;SDS011;64019;48.312;14.226;2023-06-22T06:28:21;10.03;;;3.63;;
75441;SDS011;64019;48.312;14.226;2023-06-22T06:30:47;10.03;;;3.50;;
75441;SDS011;64019;48.312;14.226;2023-06-22T06:33:13;9.73;;;4.07;;
75441;SDS011;64019;48.312;14.226;2023-06-22T06:35:39;8.57;;;3.10;;
75441;SDS011;64019;48.312;14.226;2023-06-22T06:38:04;8.40;;;3.60;;
75441;SDS011;64019;48.312;14.226;2023-06-22T06:40:30;10.70;;;3.17;;
75441;SDS011;64019;48.312;14.226;2023-06-22T06:42:56;16.00;;;4.30;;
75441;SDS011;64019;48.312;14.226;2023-06-22T06:45:23;9.90;;;3.80;;
75441;SDS011;64019;48.312;14.226;2023-06-22T06:47:50;8.63;;;3.77;;
75441;SDS011;64019;48.312;14.226;2023-06-22T06:50:19;9.33;;;4.03;;
75441;SDS011;64019;48.312;14.226;2023-06-22T06:52:45;10.90;;;3.97;;
75441;SDS011;64019;48.312;14.226;2023-06-22T06:55:11;16.10;;;3.83;;
75441;SDS011;64019;48.312;14.226;2023-06-22T06:57:37;8.47;;;3.87;;
75441;SDS011;64019;48.312;14.226;2023-06-22T07:00:04;7.37;;;3.70;;
75441;SDS011;64019;48.312;14.226;2023-06-22T07:02:39;13.00;;;4.07;;
75441;SDS011;64019;48.312;14.226;2023-06-22T07:05:06;8.50;;;3.93;;
75441;SDS011;64019;48.312;14.226;2023-06-22T07:07:32;8.67;;;4.50;;
75441;SDS011;64019;48.312;14.226;2023-06-22T07:09:58;12.80;;;4.90;;
75441;SDS011;64019;48.312;14.226;2023-06-22T07:12:24;9.50;;;3.77;;
75441;SDS011;64019;48.312;14.226;2023-06-22T07:14:51;6.73;;;4.30;;
75441;SDS011;64019;48.312;14.226;2023-06-22T07:17:25;6.97;;;4.07;;
75441;SDS011;64019;48.312;14.226;2023-06-22T07:19:51;9.83;;;4.73;;
75441;SDS011;64019;48.312;14.226;2023-06-22T07:22:17;8.20;;;4.43;;
75441;SDS011;64019;48.312;14.226;2023-06-22T07:24:42;14.00;;;5.83;;
75441;SDS011;64019;48.312;14.226;2023-06-22T07:27:08;13.07;;;5.30;;
75441;SDS011;64019;48.312;14.226;2023-06-22T07:29:36;14.77;;;4.50;;
75441;SDS011;64019;48.312;14.226;2023-06-22T07:32:02;9.03;;;4.07;;
75441;SDS011;64019;48.312;14.226;2023-06-22T07:34:30;7.37;;;4.20;;
75441;SDS011;64019;48.312;14.226;2023-06-22T07:36:55;8.10;;;4.77;;
75441;SDS011;64019;48.312;14.226;2023-06-22T07:39:21;10.50;;;4.90;;
75441;SDS011;64019;48.312;14.226;2023-06-22T07:41:50;14.53;;;5.50;;
75441;SDS011;64019;48.312;14.226;2023-06-22T07:44:16;9.60;;;3.87;;
75441;SDS011;64019;48.312;14.226;2023-06-22T07:46:42;8.63;;;3.57;;
75441;SDS011;64019;48.312;14.226;2023-06-22T07:49:09;9.63;;;4.03;;
75441;SDS011;64019;48.312;14.226;2023-06-22T07:51:35;8.20;;;3.60;;
75441;SDS011;64019;48.312;14.226;2023-06-22T07:54:00;9.70;;;4.00;;
75441;SDS011;64019;48.312;14.226;2023-06-22T07:56:26;10.83;;;3.73;;
75441;SDS011;64019;48.312;14.226;2023-06-22T07:58:52;9.63;;;3.93;;
75441;SDS011;64019;48.312;14.226;2023-06-22T08:01:18;9.40;;;3.70;;
75441;SDS011;64019;48.312;14.226;2023-06-22T08:03:47;8.87;;;3.67;;
75441;SDS011;64019;48.312;14.226;2023-06-22T08:06:13;8.03;;;4.30;;
75441;SDS011;64019;48.312;14.226;2023-06-22T08:08:39;9.23;;;4.30;;
75441;SDS011;64019;48.312;14.226;2023-06-22T08:11:05;10.10;;;5.10;;
75441;SDS011;64019;48.312;14.226;2023-06-22T08:13:31;13.63;;;4.53;;
75441;SDS011;64019;48.312;14.226;2023-06-22T08:15:57;10.13;;;4.40;;
75441;SDS011;64019;48.312;14.226;2023-06-22T08:18:23;10.17;;;4.30;;
75441;SDS011;64019;48.312;14.226;2023-06-22T08:20:48;9.93;;;4.53;;
75441;SDS011;64019;48.312;14.226;2023-06-22T08:23:14;5.13;;;4.10;;
75441;SDS011;64019;48.312;14.226;2023-06-22T08:25:40;7.30;;;4.10;;
75441;SDS011;64019;48.312;14.226;2023-06-22T08:28:06;8.80;;;3.90;;
75441;SDS011;64019;48.312;14.226;2023-06-22T08:30:32;6.87;;;4.30;;
75441;SDS011;64019;48.312;14.226;2023-06-22T08:32:57;9.47;;;4.03;;
75441;SDS011;64019;48.312;14.226;2023-06-22T08:35:23;11.80;;;4.67;;
75441;SDS011;64019;48.312;14.226;2023-06-22T08:37:49;9.50;;;4.47;;
75441;SDS011;64019;48.312;14.226;2023-06-22T08:40:19;11.70;;;4.60;;
75441;SDS011;64019;48.312;14.226;2023-06-22T08:42:46;11.00;;;4.07;;
75441;SDS011;64019;48.312;14.226;2023-06-22T08:45:12;9.23;;;5.00;;
75441;SDS011;64019;48.312;14.226;2023-06-22T08:47:39;9.63;;;5.10;;
75441;SDS011;64019;48.312;14.226;2023-06-22T08:50:06;12.37;;;4.60;;
75441;SDS011;64019;48.312;14.226;2023-06-22T08:52:33;12.50;;;5.00;;
75441;SDS011;64019;48.312;14.226;2023-06-22T08:54:59;14.87;;;5.43;;
75441;SDS011;64019;48.312;14.226;2023-06-22T08:57:25;9.03;;;5.00;;
75441;SDS011;64019;48.312;14.226;2023-06-22T08:59:52;13.00;;;5.13;;
75441;SDS011;64019;48.312;14.226;2023-06-22T09:02:18;11.63;;;4.90;;
75441;SDS011;64019;48.312;14.226;2023-06-22T09:04:47;11.63;;;4.67;;
75441;SDS011;64019;48.312;14.226;2023-06-22T09:07:14;12.93;;;5.73;;
75441;SDS011;64019;48.312;14.226;2023-06-22T09:09:47;13.10;;;5.80;;
75441;SDS011;64019;48.312;14.226;2023-06-22T09:12:13;13.70;;;4.83;;
75441;SDS011;64019;48.312;14.226;2023-06-22T09:14:40;13.50;;;6.13;;
75441;SDS011;64019;48.312;14.226;2023-06-22T09:17:06;10.43;;;5.10;;
75441;SDS011;64019;48.312;14.226;2023-06-22T09:19:32;11.83;;;5.47;;
75441;SDS011;64019;48.312;14.226;2023-06-22T09:21:58;18.67;;;5.30;;
75441;SDS011;64019;48.312;14.226;2023-06-22T09:24:24;13.40;;;4.67;;
75441;SDS011;64019;48.312;14.226;2023-06-22T09:26:50;18.90;;;5.77;;
75441;SDS011;64019;48.312;14.226;2023-06-22T09:29:16;17.53;;;6.40;;
75441;SDS011;64019;48.312;14.226;2023-06-22T09:31:42;12.43;;;5.37;;
75441;SDS011;64019;48.312;14.226;2023-06-22T09:34:07;11.60;;;5.30;;
75441;SDS011;64019;48.312;14.226;2023-06-22T09:36:33;20.07;;;5.53;;
75441;SDS011;64019;48.312;14.226;2023-06-22T09:38:59;20.03;;;5.83;;
75441;SDS011;64019;48.312;14.226;2023-06-22T09:41:30;19.30;;;5.63;;
75441;SDS011;64019;48.312;14.226;2023-06-22T09:43:56;16.23;;;5.00;;
75441;SDS011;64019;48.312;14.226;2023-06-22T09:46:22;11.00;;;4.83;;
75441;SDS011;64019;48.312;14.226;2023-06-22T09:48:50;10.87;;;4.73;;
75441;SDS011;64019;48.312;14.226;2023-06-22T09:51:16;8.43;;;4.75;;
75441;SDS011;64019;48.312;14.226;2023-06-22T09:53:41;8.57;;;4.30;;
75441;SDS011;64019;48.312;14.226;2023-06-22T09:56:07;11.75;;;5.15;;
75441;SDS011;64019;48.312;14.226;2023-06-22T09:58:39;9.23;;;4.40;;
75441;SDS011;64019;48.312;14.226;2023-06-22T10:01:08;12.27;;;5.07;;
75441;SDS011;64019;48.312;14.226;2023-06-22T10:03:35;10.70;;;4.50;;
75441;SDS011;64019;48.312;14.226;2023-06-22T10:06:02;10.73;;;5.37;;
75441;SDS011;64019;48.312;14.226;2023-06-22T10:08:28;10.37;;;4.87;;
75441;SDS011;64019;48.312;14.226;2023-06-22T10:10:53;13.37;;;4.77;;
75441;SDS011;64019;48.312;14.226;2023-06-22T10:13:20;14.77;;;5.20;;
75441;SDS011;64019;48.312;14.226;2023-06-22T10:15:46;8.60;;;5.13;;
75441;SDS011;64019;48.312;14.226;2023-06-22T10:18:16;12.23;;;5.00;;
75441;SDS011;64019;48.312;14.226;2023-06-22T10:20:42;11.33;;;5.30;;
75441;SDS011;64019;48.312;14.226;2023-06-22T10:23:08;10.67;;;4.90;;
75441;SDS011;64019;48.312;14.226;2023-06-22T10:25:34;11.60;;;4.83;;
75441;SDS011;64019;48.312;14.226;2023-06-22T10:27:59;10.03;;;4.27;;
75441;SDS011;64019;48.312;14.226;2023-06-22T10:30:25;12.07;;;4.78;;
75441;SDS011;64019;48.312;14.226;2023-06-22T10:32:51;9.50;;;5.03;;
75441;SDS011;64019;48.312;14.226;2023-06-22T10:35:17;8.50;;;4.38;;
75441;SDS011;64019;48.312;14.226;2023-06-22T10:37:43;13.98;;;5.05;;
75441;SDS011;64019;48.312;14.226;2023-06-22T10:40:10;12.90;;;4.88;;
75441;SDS011;64019;48.312;14.226;2023-06-22T10:42:37;9.43;;;4.60;;
75441;SDS011;64019;48.312;14.226;2023-06-22T10:45:03;15.57;;;5.37;;
75441;SDS011;64019;48.312;14.226;2023-06-22T10:47:29;14.98;;;5.75;;
75441;SDS011;64019;48.312;14.226;2023-06-22T10:49:54;10.93;;;5.55;;
75441;SDS011;64019;48.312;14.226;2023-06-22T10:52:20;12.05;;;4.80;;
75441;SDS011;64019;48.312;14.226;2023-06-22T10:54:46;10.98;;;4.70;;
75441;SDS011;64019;48.312;14.226;2023-06-22T10:57:12;15.05;;;5.13;;
75441;SDS011;64019;48.312;14.226;2023-06-22T10:59:37;12.37;;;5.17;;
75441;SDS011;64019;48.312;14.226;2023-06-22T11:02:03;14.13;;;4.97;;
75441;SDS011;64019;48.312;14.226;2023-06-22T11:04:29;17.70;;;5.28;;
75441;SDS011;64019;48.312;14.226;2023-06-22T11:06:54;12.57;;;5.10;;
75441;SDS011;64019;48.312;14.226;2023-06-22T11:09:21;14.48;;;5.40;;
75441;SDS011;64019;48.312;14.226;2023-06-22T11:11:47;13.48;;;5.53;;
75441;SDS011;64019;48.312;14.226;2023-06-22T11:14:14;13.13;;;5.28;;
75441;SDS011;64019;48.312;14.226;2023-06-22T11:16:40;9.10;;;4.93;;
75441;SDS011;64019;48.312;14.226;2023-06-22T11:19:07;13.50;;;5.53;;
75441;SDS011;64019;48.312;14.226;2023-06-22T11:21:33;10.50;;;4.78;;
75441;SDS011;64019;48.312;14.226;2023-06-22T11:23:59;10.65;;;5.03;;
75441;SDS011;64019;48.312;14.226;2023-06-22T11:26:25;10.80;;;5.40;;
75441;SDS011;64019;48.312;14.226;2023-06-22T11:28:54;11.70;;;4.78;;
75441;SDS011;64019;48.312;14.226;2023-06-22T11:31:20;12.48;;;5.72;;
75441;SDS011;64019;48.312;14.226;2023-06-22T11:33:46;12.80;;;5.30;;
75441;SDS011;64019;48.312;14.226;2023-06-22T11:36:12;11.57;;;5.35;;
75441;SDS011;64019;48.312;14.226;2023-06-22T11:38:39;12.05;;;5.18;;
75441;SDS011;64019;48.312;14.226;2023-06-22T11:41:08;12.50;;;4.88;;
75441;SDS011;64019;48.312;14.226;2023-06-22T11:43:34;8.25;;;5.30;;
75441;SDS011;64019;48.312;14.226;2023-06-22T11:46:01;11.20;;;5.05;;
75441;SDS011;64019;48.312;14.226;2023-06-22T11:48:28;16.45;;;5.35;;
75441;SDS011;64019;48.312;14.226;2023-06-22T11:50:54;11.05;;;5.07;;
75441;SDS011;64019;48.312;14.226;2023-06-22T11:53:20;16.85;;;5.43;;
75441;SDS011;64019;48.312;14.226;2023-06-22T11:55:49;12.27;;;5.90;;
75441;SDS011;64019;48.312;14.226;2023-06-22T11:58:15;9.85;;;5.60;;
75441;SDS011;64019;48.312;14.226;2023-06-22T12:00:41;9.73;;;4.95;;
75441;SDS011;64019;48.312;14.226;2023-06-22T12:03:07;9.65;;;4.70;;
75441;SDS011;64019;48.312;14.226;2023-06-22T12:05:34;10.88;;;5.45;;
75441;SDS011;64019;48.312;14.226;2023-06-22T12:08:00;9.00;;;5.03;;
75441;SDS011;64019;48.312;14.226;2023-06-22T12:10:26;12.55;;;5.97;;
75441;SDS011;64019;48.312;14.226;2023-06-22T12:12:53;10.05;;;5.45;;
75441;SDS011;64019;48.312;14.226;2023-06-22T12:15:19;14.52;;;5.63;;
75441;SDS011;64019;48.312;14.226;2023-06-22T12:17:45;13.27;;;5.15;;
75441;SDS011;64019;48.312;14.226;2023-06-22T12:20:13;15.10;;;5.95;;
75441;SDS011;64019;48.312;14.226;2023-06-22T12:22:38;11.27;;;5.93;;
75441;SDS011;64019;48.312;14.226;2023-06-22T12:25:06;19.67;;;6.03;;
75441;SDS011;64019;48.312;14.226;2023-06-22T12:27:32;12.30;;;5.95;;
75441;SDS011;64019;48.312;14.226;2023-06-22T12:29:58;8.88;;;5.20;;
75441;SDS011;64019;48.312;14.226;2023-06-22T12:32:24;10.00;;;5.55;;
75441;SDS011;64019;48.312;14.226;2023-06-22T12:34:50;15.00;;;5.40;;
75441;SDS011;64019;48.312;14.226;2023-06-22T12:37:16;13.45;;;6.47;;
75441;SDS011;64019;48.312;14.226;2023-06-22T12:39:42;14.98;;;5.68;;
75441;SDS011;64019;48.312;14.226;2023-06-22T12:42:08;12.52;;;5.38;;
75441;SDS011;64019;48.312;14.226;2023-06-22T12:44:37;12.85;;;5.75;;
75441;SDS011;64019;48.312;14.226;2023-06-22T12:47:07;12.65;;;5.75;;
75441;SDS011;64019;48.312;14.226;2023-06-22T12:49:36;11.63;;;5.85;;
75441;SDS011;64019;48.312;14.226;2023-06-22T12:52:02;15.18;;;5.57;;
75441;SDS011;64019;48.312;14.226;2023-06-22T12:54:33;18.02;;;10.02;;
75441;SDS011;64019;48.312;14.226;2023-06-22T12:56:59;20.13;;;6.80;;
75441;SDS011;64019;48.312;14.226;2023-06-22T12:59:25;14.85;;;5.97;;
75441;SDS011;64019;48.312;14.226;2023-06-22T13:01:50;13.13;;;5.90;;
75441;SDS011;64019;48.312;14.226;2023-06-22T13:04:16;12.75;;;5.70;;
75441;SDS011;64019;48.312;14.226;2023-06-22T13:06:43;13.18;;;5.30;;
75441;SDS011;64019;48.312;14.226;2023-06-22T13:09:12;12.13;;;5.60;;
75441;SDS011;64019;48.312;14.226;2023-06-22T13:11:38;15.75;;;5.82;;
75441;SDS011;64019;48.312;14.226;2023-06-22T13:14:04;15.27;;;5.53;;
75441;SDS011;64019;48.312;14.226;2023-06-22T13:16:30;21.55;;;6.72;;
75441;SDS011;64019;48.312;14.226;2023-06-22T13:18:56;18.33;;;6.20;;
75441;SDS011;64019;48.312;14.226;2023-06-22T13:21:21;15.15;;;6.43;;
75441;SDS011;64019;48.312;14.226;2023-06-22T13:23:47;14.55;;;5.78;;
75441;SDS011;64019;48.312;14.226;2023-06-22T13:26:13;15.63;;;6.03;;
75441;SDS011;64019;48.312;14.226;2023-06-22T13:28:38;16.17;;;5.93;;
75441;SDS011;64019;48.312;14.226;2023-06-22T13:31:04;15.73;;;6.15;;
75441;SDS011;64019;48.312;14.226;2023-06-22T13:33:30;14.25;;;6.38;;
75441;SDS011;64019;48.312;14.226;2023-06-22T13:35:56;17.60;;;5.80;;
75441;SDS011;64019;48.312;14.226;2023-06-22T13:38:22;15.68;;;6.50;;
75441;SDS011;64019;48.312;14.226;2023-06-22T13:40:48;12.55;;;5.95;;
75441;SDS011;64019;48.312;14.226;2023-06-22T13:43:14;11.38;;;6.20;;
75441;SDS011;64019;48.312;14.226;2023-06-22T13:45:40;14.90;;;6.45;;
75441;SDS011;64019;48.312;14.226;2023-06-22T13:48:06;12.32;;;5.82;;
75441;SDS011;64019;48.312;14.226;2023-06-22T13:50:32;15.05;;;6.45;;
75441;SDS011;64019;48.312;14.226;2023-06-22T13:52:58;15.95;;;6.38;;
75441;SDS011;64019;48.312;14.226;2023-06-22T13:55:23;16.85;;;5.65;;
75441;SDS011;64019;48.312;14.226;2023-06-22T13:57:49;11.73;;;5.85;;
75441;SDS011;64019;48.312;14.226;2023-06-22T14:00:16;16.90;;;5.70;;
75441;SDS011;64019;48.312;14.226;2023-06-22T14:02:42;14.00;;;5.97;;
75441;SDS011;64019;48.312;14.226;2023-06-22T14:05:08;13.98;;;5.97;;
75441;SDS011;64019;48.312;14.226;2023-06-22T14:07:34;14.95;;;5.90;;
75441;SDS011;64019;48.312;14.226;2023-06-22T14:10:00;15.10;;;5.85;;
75441;SDS011;64019;48.312;14.226;2023-06-22T14:12:26;16.90;;;6.65;;
75441;SDS011;64019;48.312;14.226;2023-06-22T14:14:52;16.00;;;6.03;;
75441;SDS011;64019;48.312;14.226;2023-06-22T14:17:18;13.30;;;6.45;;
75441;SDS011;64019;48.312;14.226;2023-06-22T14:19:49;11.77;;;6.45;;
75441;SDS011;64019;48.312;14.226;2023-06-22T14:22:17;15.05;;;6.63;;
75441;SDS011;64019;48.312;14.226;2023-06-22T14:24:43;18.63;;;6.95;;
75441;SDS011;64019;48.312;14.226;2023-06-22T14:27:09;15.50;;;7.18;;
75441;SDS011;64019;48.312;14.226;2023-06-22T14:29:35;17.80;;;7.07;;
75441;SDS011;64019;48.312;14.226;2023-06-22T14:32:01;14.20;;;6.70;;
75441;SDS011;64019;48.312;14.226;2023-06-22T14:34:31;17.98;;;6.97;;
75441;SDS011;64019;48.312;14.226;2023-06-22T14:36:57;14.70;;;6.18;;
75441;SDS011;64019;48.312;14.226;2023-06-22T14:39:23;14.27;;;6.65;;